createdAt,value
2022-08-22T00:02:03.362Z,38.54
2022-08-22T00:02:48.244Z,35.93
2022-08-22T00:03:06.941Z,38.23
2022-08-22T00:05:00.904Z,38.33
2022-08-22T00:08:07.951Z,38.47
2022-08-22T00:11:02.709Z,38.51
2022-08-22T00:13:45.649Z,38.43
2022-08-22T00:16:42.385Z,38.86
2022-08-22T00:19:43.904Z,39.63
2022-08-22T00:22:32.752Z,40.64
2022-08-22T00:25:25.775Z,39.29
2022-08-22T00:28:03.250Z,40.33
2022-08-22T00:30:39.819Z,39.95
2022-08-22T00:33:27.690Z,39.51
2022-08-22T00:36:21.783Z,38.83
2022-08-22T00:39:17.392Z,39.18
2022-08-22T00:42:04.539Z,39.15
2022-08-22T00:44:54.954Z,38.97
2022-08-22T00:47:36.313Z,38.83
2022-08-22T00:50:40.942Z,39.28
2022-08-22T00:53:30.889Z,39.68
2022-08-22T00:56:21.624Z,40.14
2022-08-22T00:59:23.415Z,40.06
2022-08-22T01:02:14.290Z,40.56
2022-08-22T01:05:01.904Z,40.79
2022-08-22T01:08:08.461Z,41.02
2022-08-22T01:10:54.927Z,40.83
2022-08-22T01:13:51.464Z,40.99
2022-08-22T01:16:50.372Z,41.67
2022-08-22T01:19:30.844Z,41.49
2022-08-22T01:22:11.454Z,42.05
2022-08-22T01:25:18.441Z,41.31
2022-08-22T01:27:58.298Z,41.04
2022-08-22T01:30:53.029Z,40.95
2022-08-22T01:33:46.332Z,40.96
2022-08-22T01:36:46.816Z,40.71
2022-08-22T01:39:45.337Z,40.73
2022-08-22T01:42:47.689Z,40.17
2022-08-22T01:45:34.420Z,40.64
2022-08-22T01:48:22.246Z,40.77
2022-08-22T01:50:57.513Z,41.36
2022-08-22T01:53:39.406Z,41.14
2022-08-22T01:56:14.994Z,41.37
2022-08-22T01:58:45.764Z,41.49
2022-08-22T02:01:20.438Z,41.63
2022-08-22T02:04:18.660Z,40.75
2022-08-22T02:07:02.494Z,41.07
2022-08-22T02:09:49.741Z,41.37
2022-08-22T02:12:27.336Z,41.72
2022-08-22T02:15:12.628Z,41.24
2022-08-22T02:18:12.273Z,41.33
2022-08-22T02:20:55.904Z,41.53
2022-08-22T02:23:35.541Z,41.17
2022-08-22T02:26:09.580Z,41.15
2022-08-22T02:28:59.690Z,41.66
2022-08-22T02:31:42.401Z,41.61
2022-08-22T02:34:28.746Z,41.84
2022-08-22T02:37:10.058Z,41.18
2022-08-22T02:39:42.261Z,41.95
2022-08-22T02:42:34.174Z,42.26
2022-08-22T02:45:18.812Z,42.42
2022-08-22T02:48:17.120Z,42.28
2022-08-22T02:50:54.454Z,42.16
2022-08-22T02:53:44.555Z,41.85
2022-08-22T02:56:12.946Z,42.83
2022-08-22T02:58:50.255Z,42.91
2022-08-22T03:01:27.649Z,42.91
2022-08-22T03:04:43.886Z,42.95
2022-08-22T03:07:21.398Z,43.25
2022-08-22T03:10:24.832Z,42.33
2022-08-22T03:13:04.364Z,42.58
2022-08-22T03:15:55.117Z,42.79
2022-08-22T03:18:41.296Z,43.26
2022-08-22T03:21:57.311Z,42.67
2022-08-22T03:24:34.948Z,43.72
2022-08-22T03:27:14.164Z,43.33
2022-08-22T03:30:10.088Z,43.06
2022-08-22T03:32:54.457Z,43.36
2022-08-22T03:35:29.289Z,43.22
2022-08-22T03:38:14.529Z,42.70
2022-08-22T03:40:57.568Z,42.02
2022-08-22T03:43:55.423Z,42.76
2022-08-22T03:46:23.978Z,42.67
2022-08-22T03:49:11.524Z,43.33
2022-08-22T03:51:46.783Z,43.66
2022-08-22T03:54:48.586Z,43.56
2022-08-22T03:57:58.652Z,43.81
2022-08-22T04:00:36.303Z,42.81
2022-08-22T04:03:46.495Z,43.19
2022-08-22T04:06:22.525Z,43.18
2022-08-22T04:08:53.866Z,43.10
2022-08-22T04:11:46.587Z,43.41
2022-08-22T04:14:35.692Z,43.86
2022-08-22T04:17:43.341Z,43.40
2022-08-22T04:20:33.932Z,43.79
2022-08-22T04:23:18.606Z,43.22
2022-08-22T04:25:53.439Z,43.61
2022-08-22T04:28:36.404Z,43.41
2022-08-22T04:31:10.467Z,42.42
2022-08-22T04:33:52.796Z,42.33
2022-08-22T04:36:45.903Z,42.36
2022-08-22T04:39:24.883Z,42.53
2022-08-22T04:42:28.737Z,42.31
2022-08-22T04:45:04.101Z,43.32
2022-08-22T04:47:54.484Z,42.65
2022-08-22T04:50:43.327Z,42.43
2022-08-22T04:53:27.211Z,42.02
2022-08-22T04:56:05.363Z,42.61
2022-08-22T04:58:42.005Z,42.76
2022-08-22T05:01:20.449Z,42.49
2022-08-22T05:03:59.980Z,42.62
2022-08-22T05:06:32.351Z,42.28
2022-08-22T05:09:07.215Z,42.62
2022-08-22T05:11:37.723Z,42.81
2022-08-22T05:14:14.477Z,42.24
2022-08-22T05:16:47.957Z,43.44
2022-08-22T05:19:32.315Z,42.94
2022-08-22T05:22:02.862Z,42.95
2022-08-22T05:24:42.256Z,42.75
2022-08-22T05:27:26.500Z,43.36
2022-08-22T05:30:02.861Z,43.54
2022-08-22T05:32:57.751Z,44.03
2022-08-22T05:35:39.942Z,44.71
2022-08-22T05:38:13.721Z,44.17
2022-08-22T05:40:48.073Z,44.33
2022-08-22T05:43:18.176Z,44.70
2022-08-22T05:45:47.639Z,45.21
2022-08-22T05:48:25.262Z,45.19
2022-08-22T05:51:03.683Z,44.73
2022-08-22T05:53:37.699Z,44.45
2022-08-22T05:56:22.364Z,44.26
2022-08-22T05:59:02.769Z,44.27
2022-08-22T06:02:08.516Z,44.45
2022-08-22T06:05:07.570Z,45.03
2022-08-22T06:07:44.232Z,45.23
2022-08-22T06:10:32.235Z,45.08
2022-08-22T06:13:25.542Z,45.37
2022-08-22T06:16:18.642Z,44.96
2022-08-22T06:18:49.645Z,44.91
2022-08-22T06:21:20.714Z,45.25
2022-08-22T06:23:56.641Z,45.41
2022-08-22T06:26:31.229Z,45.96
2022-08-22T06:29:01.256Z,46.03
2022-08-22T06:31:35.563Z,46.12
2022-08-22T06:34:28.599Z,46.49
2022-08-22T06:37:02.376Z,46.72
2022-08-22T06:39:34.367Z,46.31
2022-08-22T06:42:02.961Z,46.30
2022-08-22T06:44:43.047Z,46.75
2022-08-22T06:47:25.999Z,46.72
2022-08-22T06:50:13.693Z,46.18
2022-08-22T06:52:53.936Z,45.99
2022-08-22T06:55:26.317Z,46.22
2022-08-22T06:58:05.141Z,45.93
2022-08-22T07:00:35.666Z,46.22
2022-08-22T07:03:17.076Z,45.76
2022-08-22T07:05:46.357Z,45.84
2022-08-22T07:08:19.697Z,45.76
2022-08-22T07:11:22.261Z,45.36
2022-08-22T07:13:59.475Z,46.10
2022-08-22T07:16:35.725Z,45.52
2022-08-22T07:19:04.499Z,45.45
2022-08-22T07:21:46.912Z,45.05
2022-08-22T07:24:19.305Z,45.47
2022-08-22T07:27:02.843Z,46.09
2022-08-22T07:29:51.883Z,45.97
2022-08-22T07:32:43.289Z,45.95
2022-08-22T07:35:20.066Z,45.75
2022-08-22T07:38:14.219Z,45.81
2022-08-22T07:40:48.460Z,45.81
2022-08-22T07:43:29.894Z,45.34
2022-08-22T07:46:27.307Z,45.53
2022-08-22T07:49:15.268Z,45.22
2022-08-22T07:51:54.127Z,44.73
2022-08-22T07:54:45.318Z,44.79
2022-08-22T07:57:35.207Z,45.22
2022-08-22T08:00:15.047Z,44.79
2022-08-22T08:02:47.870Z,44.90
2022-08-22T08:05:17.514Z,44.60
2022-08-22T08:07:48.045Z,44.56
2022-08-22T08:10:26.484Z,44.27
2022-08-22T08:13:02.180Z,44.05
2022-08-22T08:15:34.639Z,44.29
2022-08-22T08:18:12.123Z,44.89
2022-08-22T08:20:40.745Z,44.59
2022-08-22T08:23:11.918Z,44.74
2022-08-22T08:26:12.659Z,44.69
2022-08-22T08:28:48.065Z,44.44
2022-08-22T08:31:43.161Z,44.43
2022-08-22T08:34:20.173Z,44.27
2022-08-22T08:36:57.896Z,44.38
2022-08-22T08:39:41.618Z,44.67
2022-08-22T08:42:10.244Z,44.20
2022-08-22T08:45:03.426Z,44.01
2022-08-22T08:48:05.909Z,43.54
2022-08-22T08:51:19.474Z,43.14
2022-08-22T08:54:29.629Z,42.80
2022-08-22T08:57:08.487Z,42.97
2022-08-22T09:00:02.743Z,42.61
2022-08-22T09:03:07.134Z,41.88
2022-08-22T09:05:54.103Z,41.96
2022-08-22T09:08:45.593Z,42.24
2022-08-22T09:11:48.032Z,42.03
2022-08-22T09:14:53.784Z,41.75
2022-08-22T09:17:51.776Z,41.75
2022-08-22T09:20:47.473Z,40.78
2022-08-22T09:23:48.628Z,40.71
2022-08-22T09:26:29.283Z,39.94
2022-08-22T09:29:14.584Z,39.31
2022-08-22T09:32:03.369Z,37.87
2022-08-22T09:34:45.930Z,37.70
2022-08-22T09:37:25.788Z,37.71
2022-08-22T09:40:03.990Z,37.33
2022-08-22T09:42:51.269Z,37.35
2022-08-22T09:45:53.105Z,37.59
2022-08-22T09:48:30.415Z,37.66
2022-08-22T09:51:31.760Z,37.41
2022-08-22T09:54:07.504Z,36.95
2022-08-22T09:56:59.602Z,36.90
2022-08-22T09:59:54.966Z,36.01
2022-08-22T10:02:34.379Z,36.18
2022-08-22T10:05:35.183Z,35.43
2022-08-22T10:08:11.689Z,35.21
2022-08-22T10:11:21.121Z,35.64
2022-08-22T10:14:01.237Z,35.75
2022-08-22T10:16:56.912Z,35.40
2022-08-22T10:19:53.326Z,34.84
2022-08-22T10:22:34.034Z,34.60
2022-08-22T10:25:24.418Z,34.44
2022-08-22T10:28:24.094Z,34.55
2022-08-22T10:31:12.187Z,34.70
2022-08-22T10:34:02.330Z,34.65
2022-08-22T10:37:08.329Z,34.98
2022-08-22T10:39:53.897Z,34.66
2022-08-22T10:42:31.263Z,34.11
2022-08-22T10:45:15.561Z,33.01
2022-08-22T10:47:58.798Z,34.03
2022-08-22T10:50:43.053Z,34.14
2022-08-22T10:54:02.869Z,33.58
2022-08-22T10:57:06.680Z,32.59
2022-08-22T11:00:12.283Z,32.02
2022-08-22T11:02:54.999Z,31.91
2022-08-22T11:05:35.389Z,30.83
2022-08-22T11:08:40.371Z,32.07
2022-08-22T11:11:38.316Z,30.86
2022-08-22T11:14:37.727Z,29.81
2022-08-22T11:17:34.601Z,31.22
2022-08-22T11:20:13.256Z,30.77
2022-08-22T11:23:08.575Z,31.24
2022-08-22T11:25:54.792Z,32.07
2022-08-22T11:28:51.895Z,30.68
2022-08-22T11:31:47.188Z,31.02
2022-08-22T11:34:40.184Z,30.85
2022-08-22T11:37:43.364Z,31.12
2022-08-22T11:40:33.081Z,31.04
2022-08-22T11:43:21.703Z,30.84
2022-08-22T11:45:57.019Z,30.42
2022-08-22T11:48:31.608Z,31.13
2022-08-22T11:51:25.059Z,30.82
2022-08-22T11:54:07.354Z,30.44
2022-08-22T11:56:45.141Z,30.56
2022-08-22T11:59:19.681Z,31.62
2022-08-22T12:01:59.352Z,31.10
2022-08-22T12:04:38.171Z,31.57
2022-08-22T12:07:18.873Z,32.30
2022-08-22T12:10:13.783Z,30.76
2022-08-22T12:13:02.376Z,29.87
2022-08-22T12:15:57.574Z,31.17
2022-08-22T12:18:26.620Z,30.82
2022-08-22T12:21:03.378Z,30.26
2022-08-22T12:23:57.709Z,30.42
2022-08-22T12:27:07.825Z,29.23
2022-08-22T12:30:04.406Z,30.05
2022-08-22T12:32:49.298Z,30.72
2022-08-22T12:35:29.657Z,29.73
2022-08-22T12:38:02.064Z,30.18
2022-08-22T12:40:36.991Z,29.96
2022-08-22T12:43:18.794Z,30.11
2022-08-22T12:46:06.449Z,30.35
2022-08-22T12:49:07.565Z,30.61
2022-08-22T12:52:04.585Z,30.47
2022-08-22T12:55:10.792Z,30.38
2022-08-22T12:57:58.870Z,28.26
2022-08-22T13:00:36.826Z,29.96
2022-08-22T13:03:21.632Z,29.46
2022-08-22T13:05:59.824Z,29.45
2022-08-22T13:08:47.546Z,28.82
2022-08-22T13:11:23.220Z,29.29
2022-08-22T13:14:00.951Z,29.53
2022-08-22T13:16:48.668Z,29.23
2022-08-22T13:19:25.569Z,29.38
2022-08-22T13:22:21.833Z,28.14
2022-08-22T13:24:57.547Z,28.60
2022-08-22T13:27:35.164Z,29.17
2022-08-22T13:30:12.374Z,28.44
2022-08-22T13:32:46.377Z,28.81
2022-08-22T13:35:23.881Z,28.76
2022-08-22T13:37:58.746Z,27.90
2022-08-22T13:40:30.678Z,28.42
2022-08-22T13:43:12.005Z,27.91
2022-08-22T13:45:50.079Z,28.02
2022-08-22T13:48:23.784Z,27.93
2022-08-22T13:51:14.529Z,27.44
2022-08-22T13:53:58.105Z,27.97
2022-08-22T13:56:47.259Z,27.11
2022-08-22T13:59:49.660Z,28.46
2022-08-22T14:02:36.729Z,27.16
2022-08-22T14:05:11.232Z,28.04
2022-08-22T14:08:18.391Z,28.22
2022-08-22T14:11:02.098Z,27.93
2022-08-22T14:13:44.388Z,26.76
2022-08-22T14:16:33.387Z,27.35
2022-08-22T14:19:11.063Z,27.30
2022-08-22T14:21:47.582Z,27.88
2022-08-22T14:24:19.238Z,27.43
2022-08-22T14:27:07.009Z,27.92
2022-08-22T14:29:41.717Z,27.07
2022-08-22T14:32:32.669Z,25.98
2022-08-22T14:35:21.423Z,27.49
2022-08-22T14:37:55.908Z,27.43
2022-08-22T14:40:36.265Z,27.30
2022-08-22T14:43:40.556Z,27.22
2022-08-22T14:46:18.601Z,27.16
2022-08-22T14:48:50.712Z,27.48
2022-08-22T14:51:23.648Z,27.78
2022-08-22T14:53:52.736Z,27.36
2022-08-22T14:56:27.680Z,27.11
2022-08-22T14:59:37.858Z,27.34
2022-08-22T15:02:18.718Z,26.60
2022-08-22T15:04:51.615Z,27.42
2022-08-22T15:07:26.333Z,27.30
2022-08-22T15:10:01.225Z,26.10
2022-08-22T15:12:35.618Z,26.69
2022-08-22T15:15:14.445Z,26.98
2022-08-22T15:17:46.425Z,26.82
2022-08-22T15:20:38.287Z,26.06
2022-08-22T15:23:23.246Z,26.03
2022-08-22T15:26:04.100Z,26.19
2022-08-22T15:28:53.333Z,26.95
2022-08-22T15:31:22.835Z,26.71
2022-08-22T15:33:52.366Z,26.62
2022-08-22T15:36:22.906Z,27.48
2022-08-22T15:38:56.593Z,27.45
2022-08-22T15:41:31.371Z,26.65
2022-08-22T15:44:30.947Z,26.43
2022-08-22T15:47:10.895Z,26.91
2022-08-22T15:49:58.543Z,26.77
2022-08-22T15:52:55.776Z,26.91
2022-08-22T15:55:35.432Z,27.04
2022-08-22T15:58:21.776Z,27.15
2022-08-22T16:01:05.407Z,27.33
2022-08-22T16:03:58.944Z,27.24
2022-08-22T16:06:49.268Z,27.40
2022-08-22T16:09:37.992Z,27.30
2022-08-22T16:12:27.352Z,27.48
2022-08-22T16:14:56.153Z,27.77
2022-08-22T16:17:30.712Z,28.02
2022-08-22T16:20:10.009Z,28.39
2022-08-22T16:22:58.158Z,28.20
2022-08-22T16:25:45.285Z,27.47
2022-08-22T16:28:57.241Z,27.00
2022-08-22T16:31:33.835Z,27.44
2022-08-22T16:34:17.699Z,26.88
2022-08-22T16:37:22.273Z,27.59
2022-08-22T16:39:50.748Z,27.89
2022-08-22T16:42:21.803Z,27.65
2022-08-22T16:44:57.930Z,27.85
2022-08-22T16:47:33.315Z,27.75
2022-08-22T16:50:23.373Z,27.81
2022-08-22T16:52:59.656Z,27.98
2022-08-22T16:55:35.850Z,27.29
2022-08-22T16:58:16.498Z,27.74
2022-08-22T17:00:59.444Z,27.30
2022-08-22T17:03:58.477Z,27.56
2022-08-22T17:07:14.884Z,27.11
2022-08-22T17:09:51.256Z,27.44
2022-08-22T17:12:44.405Z,27.08
2022-08-22T17:15:34.005Z,27.48
2022-08-22T17:18:27.475Z,27.41
2022-08-22T17:21:12.093Z,27.88
2022-08-22T17:23:51.699Z,27.50
2022-08-22T17:26:29.537Z,27.36
2022-08-22T17:29:39.728Z,27.97
2022-08-22T17:32:17.658Z,28.26
2022-08-22T17:34:49.593Z,28.06
2022-08-22T17:37:49.344Z,27.94
2022-08-22T17:40:28.168Z,27.56
2022-08-22T17:43:49.376Z,28.06
2022-08-22T17:47:08.013Z,28.41
2022-08-22T17:50:11.159Z,28.54
2022-08-22T17:52:57.454Z,28.35
2022-08-22T17:55:52.704Z,28.08
2022-08-22T17:58:37.505Z,28.36
2022-08-22T18:01:50.539Z,29.25
2022-08-22T18:04:43.364Z,29.10
2022-08-22T18:07:15.913Z,29.02
2022-08-22T18:10:23.304Z,29.00
2022-08-22T18:13:10.640Z,29.17
2022-08-22T18:15:57.510Z,29.21
2022-08-22T18:18:39.998Z,29.29
2022-08-22T18:21:36.917Z,28.92
2022-08-22T18:24:24.893Z,29.20
2022-08-22T18:27:01.358Z,29.03
2022-08-22T18:30:02.521Z,29.24
2022-08-22T18:32:47.872Z,29.68
2022-08-22T18:35:22.977Z,29.65
2022-08-22T18:38:00.360Z,29.34
2022-08-22T18:40:32.063Z,29.21
2022-08-22T18:43:40.734Z,29.44
2022-08-22T18:46:37.329Z,29.11
2022-08-22T18:49:24.095Z,29.18
2022-08-22T18:52:26.805Z,29.25
2022-08-22T18:54:57.993Z,29.45
2022-08-22T18:57:55.067Z,29.36
2022-08-22T19:00:46.538Z,29.55
2022-08-22T19:03:36.112Z,29.22
2022-08-22T19:06:33.076Z,29.17
2022-08-22T19:09:23.781Z,29.63
2022-08-22T19:12:14.474Z,29.44
2022-08-22T19:14:58.561Z,29.98
2022-08-22T19:17:26.993Z,29.62
2022-08-22T19:20:44.042Z,29.68
2022-08-22T19:23:34.226Z,30.32
2022-08-22T19:26:24.249Z,30.73
2022-08-22T19:28:56.922Z,30.88
2022-08-22T19:31:41.190Z,30.70
2022-08-22T19:34:32.051Z,30.37
2022-08-22T19:37:30.465Z,30.54
2022-08-22T19:40:07.116Z,30.64
2022-08-22T19:42:38.491Z,30.50
2022-08-22T19:45:18.485Z,30.69
2022-08-22T19:48:00.469Z,30.79
2022-08-22T19:50:34.038Z,30.94
2022-08-22T19:53:58.738Z,30.78
2022-08-22T19:56:48.460Z,31.00
2022-08-22T19:59:35.342Z,31.08
2022-08-22T20:02:16.479Z,30.78
2022-08-22T20:05:29.614Z,30.84
2022-08-22T20:08:26.277Z,30.95
2022-08-22T20:11:28.201Z,31.07
2022-08-22T20:14:30.701Z,31.15
2022-08-22T20:17:12.851Z,31.36
2022-08-22T20:20:16.425Z,31.58
2022-08-22T20:22:44.043Z,31.59
2022-08-22T20:25:42.957Z,31.73
2022-08-22T20:28:13.505Z,31.42
2022-08-22T20:30:57.908Z,31.90
2022-08-22T20:33:40.019Z,31.68
2022-08-22T20:36:27.412Z,31.69
2022-08-22T20:39:05.885Z,31.75
2022-08-22T20:41:38.964Z,31.66
2022-08-22T20:44:21.688Z,31.83
2022-08-22T20:47:19.514Z,31.57
2022-08-22T20:50:03.212Z,32.04
2022-08-22T20:52:54.344Z,32.25
2022-08-22T20:55:31.619Z,32.01
2022-08-22T20:58:05.082Z,31.83
2022-08-22T21:00:42.186Z,31.72
2022-08-22T21:03:15.529Z,31.76
2022-08-22T21:05:45.333Z,31.70
2022-08-22T21:08:24.679Z,31.91
2022-08-22T21:11:22.130Z,31.74
2022-08-22T21:13:51.916Z,31.96
2022-08-22T21:16:33.323Z,32.29
2022-08-22T21:19:01.970Z,32.65
2022-08-22T21:21:33.932Z,32.33
2022-08-22T21:24:06.098Z,32.31
2022-08-22T21:26:37.370Z,32.21
2022-08-22T21:29:14.672Z,31.61
2022-08-22T21:31:59.313Z,31.93
2022-08-22T21:34:52.085Z,31.60
2022-08-22T21:37:44.443Z,32.07
2022-08-22T21:40:45.330Z,32.21
2022-08-22T21:43:36.857Z,32.45
2022-08-22T21:46:06.990Z,32.73
2022-08-22T21:48:40.107Z,32.26
2022-08-22T21:51:30.680Z,32.30
2022-08-22T21:54:31.138Z,32.41
2022-08-22T21:57:15.484Z,32.26
2022-08-22T21:59:59.348Z,32.24
2022-08-22T22:02:37.495Z,32.45
2022-08-22T22:05:11.498Z,32.35
2022-08-22T22:07:42.709Z,32.11
2022-08-22T22:10:15.903Z,32.27
2022-08-22T22:12:46.641Z,32.36
2022-08-22T22:15:19.133Z,32.42
2022-08-22T22:17:47.698Z,32.49
2022-08-22T22:20:18.335Z,32.81
2022-08-22T22:22:47.471Z,32.81
2022-08-22T22:25:39.178Z,32.66
2022-08-22T22:28:25.045Z,32.97
2022-08-22T22:30:53.567Z,33.01
2022-08-22T22:33:30.549Z,33.10
2022-08-22T22:36:03.372Z,32.78
2022-08-22T22:38:31.812Z,33.01
2022-08-22T22:41:01.232Z,33.22
2022-08-22T22:43:29.713Z,33.00
2022-08-22T22:46:00.539Z,33.03
2022-08-22T22:48:29.303Z,33.38
2022-08-22T22:50:57.821Z,33.41
2022-08-22T22:53:33.646Z,33.23
2022-08-22T22:56:11.215Z,33.28
2022-08-22T22:58:40.824Z,33.33
2022-08-22T23:01:16.195Z,33.04
2022-08-22T23:03:45.638Z,33.55
2022-08-22T23:06:17.525Z,33.33
2022-08-22T23:08:47.127Z,32.95
2022-08-22T23:11:20.165Z,33.00
2022-08-22T23:13:48.865Z,33.07
2022-08-22T23:16:24.517Z,33.27
2022-08-22T23:18:53.025Z,33.12
2022-08-22T23:21:28.648Z,33.23
2022-08-22T23:23:59.522Z,34.00
2022-08-22T23:26:28.974Z,34.10
2022-08-22T23:28:57.762Z,33.96
2022-08-22T23:31:37.004Z,33.75
2022-08-22T23:34:11.662Z,35.25
2022-08-22T23:36:42.542Z,35.54
2022-08-22T23:39:13.493Z,35.05
2022-08-22T23:41:42.731Z,34.92
2022-08-22T23:44:13.517Z,34.84
2022-08-22T23:46:43.187Z,35.38
2022-08-22T23:49:12.730Z,35.37
2022-08-22T23:51:42.317Z,35.15
2022-08-22T23:54:11.521Z,35.19
2022-08-22T23:56:58.369Z,34.86
2022-08-22T23:59:34.888Z,34.56
